You are listening to:
LSZH Tower - Zurich, Switzerland

LSZH 140950Z VRB02KT CAVOK 03/00 Q1002 NOSIG

If stream does not start automatically press the play button